Albany, Vermont
Current Conditions -  °F | °C
As of 3:35 AM on Monday 24 Nov 2014 (Local Time) from KEFK Reporting Station
Clear Clear  
Wind Chill: 37°   Ceiling: Unl
Heat Index: 43°   Visibility: 10mi
Dew Point: 35°   Wind: 10mph
Humidity: 74%   Direction: 170°S
Pressure: 29.86"   Gusts: NA
Location:  44.73°N, 72.38°W
Report Text: KEFK 240835Z AUTO 17009KT 10SM CLR 06/02 A2986 RMK AO2 T00620018
Loading
Personal Weather Stations






























Interactive Weather Map New forecast layout! Learn more

10-Day Weather Forecast

Advertisements
Track Severe Weather on mobile